QFA406 YMML-YSSY
Flight info
| Callsign | QFA406 |
|---|---|
| Flight time | N/A |
| Altitude | 35000 |
| Route | DOSEL Y59 RIVET |
| Aircraft | B738/M-SDE2E3FGHIRWXY/LB1 |
Departure
| Time | 2026-05-07 22:37 |
|---|---|
| Airport | Melbourne Airport (YMML) |
Arrival
| Time | N/A |
|---|---|
| Airport | Sydney Kingsford Smith International Airport (YSSY) |
| Time | Latitude | Longitude | Altitude | Speed | Heading |
|---|---|---|---|---|---|
| 2026-05-07 21:50 | -37.66674 | 144.85270 | 396 ft | 0 kts | 262° |
| 2026-05-07 21:54 | -37.66675 | 144.85264 | 396 ft | 0 kts | 262° |
| 2026-05-07 22:27 | -37.66675 | 144.85268 | 396 ft | 3 kts | 262° |
| 2026-05-07 22:27 | -37.66671 | 144.85298 | 395 ft | 2 kts | 262° |
| 2026-05-07 22:27 | -37.66670 | 144.85309 | 395 ft | 4 kts | 258° |
| 2026-05-07 22:28 | -37.66663 | 144.85336 | 391 ft | 4 kts | 236° |
| 2026-05-07 22:28 | -37.66645 | 144.85356 | 390 ft | 4 kts | 189° |
| 2026-05-07 22:28 | -37.66620 | 144.85354 | 392 ft | 4 kts | 165° |
| 2026-05-07 22:28 | -37.66595 | 144.85341 | 394 ft | 4 kts | 144° |
| 2026-05-07 22:29 | -37.66577 | 144.85318 | 394 ft | 3 kts | 117° |
| 2026-05-07 22:29 | -37.66569 | 144.85289 | 396 ft | 4 kts | 86° |
| 2026-05-07 22:29 | -37.66573 | 144.85259 | 394 ft | 2 kts | 82° |
| 2026-05-07 22:29 | -37.66576 | 144.85228 | 394 ft | 4 kts | 82° |
| 2026-05-07 22:30 | -37.66578 | 144.85214 | 395 ft | 1 kts | 82° |
| 2026-05-07 22:32 | -37.66577 | 144.85228 | 394 ft | 3 kts | 82° |
| 2026-05-07 22:32 | -37.66571 | 144.85263 | 395 ft | 5 kts | 72° |
| 2026-05-07 22:32 | -37.66543 | 144.85288 | 399 ft | 5 kts | 4° |
| 2026-05-07 22:32 | -37.66513 | 144.85264 | 399 ft | 5 kts | 303° |
| 2026-05-07 22:33 | -37.66502 | 144.85220 | 402 ft | 5 kts | 283° |
| 2026-05-07 22:33 | -37.66496 | 144.85175 | 404 ft | 5 kts | 279° |
| 2026-05-07 22:33 | -37.66489 | 144.85128 | 405 ft | 7 kts | 280° |
| 2026-05-07 22:33 | -37.66469 | 144.85054 | 407 ft | 9 kts | 297° |
| 2026-05-07 22:34 | -37.66429 | 144.84992 | 408 ft | 9 kts | 322° |
| 2026-05-07 22:34 | -37.66379 | 144.84943 | 407 ft | 9 kts | 322° |
| 2026-05-07 22:34 | -37.66331 | 144.84895 | 411 ft | 9 kts | 321° |
| 2026-05-07 22:34 | -37.66285 | 144.84847 | 408 ft | 8 kts | 320° |
| 2026-05-07 22:35 | -37.66242 | 144.84799 | 408 ft | 8 kts | 317° |
| 2026-05-07 22:35 | -37.66225 | 144.84757 | 412 ft | 0 kts | 276° |
| 2026-05-07 22:36 | -37.66225 | 144.84756 | 412 ft | 1 kts | 276° |
| 2026-05-07 22:36 | -37.66216 | 144.84616 | 412 ft | 45 kts | 274° |
| 2026-05-07 22:36 | -37.66176 | 144.83921 | 412 ft | 111 kts | 274° |
| 2026-05-07 22:36 | -37.66108 | 144.82748 | 582 ft | 148 kts | 272° |
| 2026-05-07 22:37 | -37.66020 | 144.81429 | 1220 ft | 154 kts | 271° |
| 2026-05-07 22:37 | -37.65977 | 144.80523 | 1687 ft | 157 kts | 268° |
| 2026-05-07 22:37 | -37.65904 | 144.79166 | 2489 ft | 158 kts | 266° |
| 2026-05-07 22:37 | -37.65829 | 144.77696 | 2956 ft | 177 kts | 266° |
| 2026-05-07 22:38 | -37.65737 | 144.76022 | 3162 ft | 204 kts | 267° |
| 2026-05-07 22:38 | -37.65632 | 144.74165 | 3423 ft | 227 kts | 268° |
| 2026-05-07 22:38 | -37.65515 | 144.72108 | 3949 ft | 239 kts | 268° |
| 2026-05-07 22:38 | -37.65392 | 144.69997 | 4731 ft | 242 kts | 267° |
| 2026-05-07 22:39 | -37.65006 | 144.67883 | 5507 ft | 257 kts | 289° |
| 2026-05-07 22:39 | -37.63945 | 144.66001 | 6313 ft | 271 kts | 306° |
| 2026-05-07 22:39 | -37.62379 | 144.64557 | 7000 ft | 291 kts | 330° |
| 2026-05-07 22:39 | -37.60424 | 144.63735 | 7670 ft | 301 kts | 337° |
| 2026-05-07 22:40 | -37.58394 | 144.62985 | 8328 ft | 307 kts | 338° |
| 2026-05-07 22:40 | -37.56312 | 144.62368 | 8977 ft | 319 kts | 352° |
| 2026-05-07 22:40 | -37.54088 | 144.62800 | 9656 ft | 331 kts | 23° |
| 2026-05-07 22:40 | -37.52220 | 144.64475 | 10306 ft | 332 kts | 52° |
| 2026-05-07 22:41 | -37.50750 | 144.66813 | 10521 ft | 351 kts | 57° |
| 2026-05-07 22:41 | -37.49264 | 144.69376 | 10696 ft | 372 kts | 58° |
| 2026-05-07 22:41 | -37.47704 | 144.72063 | 11088 ft | 384 kts | 57° |
| 2026-05-07 22:41 | -37.46224 | 144.74869 | 11675 ft | 387 kts | 63° |
| 2026-05-07 22:42 | -37.44862 | 144.77816 | 12349 ft | 390 kts | 65° |
| 2026-05-07 22:42 | -37.43533 | 144.80817 | 13008 ft | 394 kts | 65° |
| 2026-05-07 22:42 | -37.42192 | 144.83854 | 13651 ft | 400 kts | 65° |
| 2026-05-07 22:42 | -37.40840 | 144.86883 | 14263 ft | 405 kts | 64° |
| 2026-05-07 22:43 | -37.39440 | 144.89983 | 14918 ft | 408 kts | 64° |
| 2026-05-07 22:43 | -37.38021 | 144.93092 | 15604 ft | 411 kts | 64° |
| 2026-05-07 22:43 | -37.36583 | 144.96221 | 16271 ft | 414 kts | 63° |
| 2026-05-07 22:43 | -37.35161 | 144.99306 | 16915 ft | 418 kts | 63° |
| 2026-05-07 22:44 | -37.33668 | 145.02539 | 17555 ft | 423 kts | 63° |
| 2026-05-07 22:44 | -37.32177 | 145.05766 | 18085 ft | 430 kts | 63° |
| 2026-05-07 22:44 | -37.30682 | 145.08997 | 18692 ft | 433 kts | 63° |
| 2026-05-07 22:44 | -37.29160 | 145.12282 | 19282 ft | 435 kts | 63° |
| 2026-05-07 22:45 | -37.27627 | 145.15587 | 19883 ft | 437 kts | 63° |
| 2026-05-07 22:45 | -37.26253 | 145.18548 | 20388 ft | 440 kts | 63° |
| 2026-05-07 22:45 | -37.26088 | 145.18904 | 20448 ft | 440 kts | 63° |
| 2026-05-07 22:45 | -37.24540 | 145.22237 | 20992 ft | 443 kts | 63° |
| 2026-05-07 22:46 | -37.22981 | 145.25591 | 21511 ft | 446 kts | 63° |
| 2026-05-07 22:46 | -37.21407 | 145.28974 | 22059 ft | 449 kts | 63° |
| 2026-05-07 22:46 | -37.19844 | 145.32332 | 22551 ft | 452 kts | 63° |
| 2026-05-07 22:46 | -37.18249 | 145.35754 | 23053 ft | 456 kts | 63° |
| 2026-05-07 22:47 | -37.16641 | 145.39197 | 23562 ft | 458 kts | 63° |
| 2026-05-07 22:47 | -37.14930 | 145.42590 | 24025 ft | 463 kts | 59° |
| 2026-05-07 22:47 | -37.13068 | 145.45902 | 24449 ft | 466 kts | 57° |
| 2026-05-07 22:47 | -37.11135 | 145.49186 | 24853 ft | 469 kts | 56° |
| 2026-05-07 22:48 | -37.09180 | 145.52473 | 25290 ft | 471 kts | 56° |
| 2026-05-07 22:48 | -37.07218 | 145.55784 | 25676 ft | 474 kts | 57° |
| 2026-05-07 22:48 | -37.05283 | 145.59080 | 26052 ft | 477 kts | 57° |
| 2026-05-07 22:48 | -37.03326 | 145.62442 | 26438 ft | 479 kts | 57° |
| 2026-05-07 22:49 | -37.01366 | 145.65828 | 26790 ft | 481 kts | 57° |
| 2026-05-07 22:49 | -36.99399 | 145.69235 | 27198 ft | 483 kts | 57° |
| 2026-05-07 22:49 | -36.97426 | 145.72655 | 27575 ft | 485 kts | 57° |
| 2026-05-07 22:49 | -36.95445 | 145.76086 | 27938 ft | 487 kts | 57° |
| 2026-05-07 22:50 | -36.93457 | 145.79526 | 28320 ft | 490 kts | 57° |
| 2026-05-07 22:50 | -36.91448 | 145.82998 | 28572 ft | 495 kts | 57° |
| 2026-05-07 22:50 | -36.89419 | 145.86500 | 28860 ft | 498 kts | 57° |
| 2026-05-07 22:50 | -36.87387 | 145.90002 | 29214 ft | 499 kts | 57° |
| 2026-05-07 22:51 | -36.85372 | 145.93468 | 29600 ft | 499 kts | 57° |
| 2026-05-07 22:51 | -36.83325 | 145.96986 | 29922 ft | 501 kts | 57° |
| 2026-05-07 22:51 | -36.81265 | 146.00524 | 30204 ft | 504 kts | 57° |
| 2026-05-07 22:51 | -36.79192 | 146.04080 | 30448 ft | 506 kts | 57° |
| 2026-05-07 22:52 | -36.77113 | 146.07643 | 30709 ft | 509 kts | 57° |
| 2026-05-07 22:52 | -36.75022 | 146.11224 | 30918 ft | 510 kts | 57° |
| 2026-05-07 22:52 | -36.72937 | 146.14789 | 31349 ft | 507 kts | 57° |
| 2026-05-07 22:52 | -36.70888 | 146.18287 | 31802 ft | 504 kts | 57° |
| 2026-05-07 22:53 | -36.68820 | 146.21813 | 32159 ft | 503 kts | 57° |
| 2026-05-07 22:53 | -36.66756 | 146.25332 | 32430 ft | 504 kts | 57° |
| 2026-05-07 22:53 | -36.64684 | 146.28862 | 32704 ft | 504 kts | 57° |
| 2026-05-07 22:53 | -36.62609 | 146.32395 | 33068 ft | 503 kts | 57° |
| 2026-05-07 22:54 | -36.60533 | 146.35923 | 33322 ft | 505 kts | 56° |
| 2026-05-07 22:54 | -36.58480 | 146.39409 | 33556 ft | 506 kts | 56° |
| 2026-05-07 22:54 | -36.56399 | 146.42939 | 33875 ft | 505 kts | 56° |
| 2026-05-07 22:54 | -36.54321 | 146.46459 | 34233 ft | 503 kts | 56° |
| 2026-05-07 22:55 | -36.52247 | 146.49969 | 34525 ft | 502 kts | 56° |
| 2026-05-07 22:55 | -36.50175 | 146.53472 | 34784 ft | 502 kts | 56° |
| 2026-05-07 22:55 | -36.48125 | 146.56936 | 35012 ft | 501 kts | 56° |
| 2026-05-07 22:55 | -36.46053 | 146.60431 | 35257 ft | 501 kts | 56° |
| 2026-05-07 22:56 | -36.43968 | 146.63949 | 35227 ft | 505 kts | 56° |
| 2026-05-07 22:56 | -36.39813 | 146.70942 | 35239 ft | 504 kts | 56° |
| 2026-05-07 22:57 | -36.35666 | 146.77905 | 35217 ft | 498 kts | 56° |
| 2026-05-07 22:57 | -36.31569 | 146.84774 | 35263 ft | 497 kts | 55° |
| 2026-05-07 22:58 | -36.27455 | 146.91660 | 35243 ft | 498 kts | 55° |
| 2026-05-07 22:58 | -36.23308 | 146.98585 | 35240 ft | 499 kts | 55° |
| 2026-05-07 22:59 | -36.19180 | 147.05467 | 35229 ft | 500 kts | 55° |
| 2026-05-07 22:59 | -36.15012 | 147.12396 | 35267 ft | 501 kts | 55° |
| 2026-05-07 23:00 | -36.10854 | 147.19297 | 35246 ft | 503 kts | 55° |
| 2026-05-07 23:00 | -36.09438 | 147.21645 | 35238 ft | 504 kts | 55° |